Time;durP1;ratioP1;P1;durP2;ratioP2;P2;SDS_P1;SDS_P2;PMS_P1;PMS_P2;Temp;Humidity;BMP_temperature;BMP_pressure;BME280_temperature;BME280_humidity;BME280_pressure;Samples;Min_cycle;Max_cycle;Signal;HPM_P1;HPM_P2
2023/09/16 00:01:38;;;;;;;2.60;2.30;;;22.70;99.90;;;;;;5087291;28;20216;-81
2023/09/16 00:04:03;;;;;;;2.80;2.50;;;22.70;99.90;;;;;;5087241;28;20656;-82
2023/09/16 00:06:29;;;;;;;2.30;2.03;;;22.70;99.90;;;;;;5088675;28;20204;-82
2023/09/16 00:08:55;;;;;;;1.83;1.73;;;22.70;99.90;;;;;;5088497;28;20183;-82
2023/09/16 00:11:22;;;;;;;2.17;1.93;;;22.60;99.90;;;;;;5087252;28;20210;-81
2023/09/16 00:13:48;;;;;;;1.70;1.60;;;22.60;99.90;;;;;;5087118;28;20284;-81
2023/09/16 00:16:15;;;;;;;2.40;2.20;;;22.60;99.90;;;;;;5088314;28;20501;-81
2023/09/16 00:18:41;;;;;;;2.20;2.00;;;22.60;99.90;;;;;;5088547;28;20192;-81
2023/09/16 00:21:07;;;;;;;2.43;2.20;;;22.60;99.90;;;;;;5088210;28;20467;-81
2023/09/16 00:23:32;;;;;;;5.57;2.60;;;22.60;99.90;;;;;;5087149;28;20553;-83
2023/09/16 00:25:58;;;;;;;1.90;1.70;;;22.60;99.90;;;;;;5088393;28;20283;-81
2023/09/16 00:28:27;;;;;;;2.50;2.30;;;22.50;99.90;;;;;;5086946;28;20575;-81
2023/09/16 00:30:53;;;;;;;1.90;1.73;;;22.50;99.90;;;;;;5088057;28;20425;-81
2023/09/16 00:33:19;;;;;;;2.40;2.20;;;22.50;99.90;;;;;;5087106;28;20543;-82
2023/09/16 00:35:45;;;;;;;2.23;2.03;;;22.50;99.90;;;;;;5088078;28;20234;-81
2023/09/16 00:38:11;;;;;;;2.27;2.07;;;22.50;99.90;;;;;;5088160;28;20436;-81
2023/09/16 00:40:37;;;;;;;2.67;2.10;;;22.40;99.90;;;;;;5088242;28;20502;-81
2023/09/16 00:43:03;;;;;;;4.20;2.10;;;22.40;99.90;;;;;;5088065;28;20605;-80
2023/09/16 00:45:28;;;;;;;2.57;1.90;;;22.40;99.90;;;;;;5086142;28;20506;-80
2023/09/16 00:47:54;;;;;;;2.10;2.00;;;22.40;99.90;;;;;;5088052;28;21010;-82
2023/09/16 00:50:20;;;;;;;2.70;2.50;;;22.40;99.90;;;;;;5085491;28;20467;-82
2023/09/16 00:52:53;;;;;;;2.47;1.93;;;22.40;99.90;;;;;;5086016;28;20188;-81
2023/09/16 00:55:19;;;;;;;2.80;2.60;;;22.30;99.90;;;;;;5088171;28;20437;-81
2023/09/16 00:57:48;;;;;;;1.97;1.87;;;22.30;99.90;;;;;;5086534;28;20478;-80
2023/09/16 01:00:16;;;;;;;2.50;2.10;;;22.30;99.90;;;;;;5086305;28;20477;-83
2023/09/16 01:02:43;;;;;;;2.33;2.10;;;22.30;99.90;;;;;;5087676;28;20412;-81
2023/09/16 01:05:16;;;;;;;1.87;1.70;;;22.30;99.90;;;;;;5087594;28;20468;-81
2023/09/16 01:07:45;;;;;;;3.90;2.43;;;22.30;99.90;;;;;;5086523;28;20446;-80
2023/09/16 01:10:11;;;;;;;2.20;2.00;;;22.30;99.90;;;;;;5085963;28;20444;-81
2023/09/16 01:12:38;;;;;;;1.50;1.40;;;22.30;99.90;;;;;;5086332;28;20794;-81
2023/09/16 01:15:06;;;;;;;2.00;1.90;;;22.30;99.90;;;;;;5085868;28;20507;-80
2023/09/16 01:17:37;;;;;;;2.20;2.00;;;22.30;99.90;;;;;;5087357;28;20424;-80
2023/09/16 01:20:06;;;;;;;2.20;2.00;;;22.30;99.90;;;;;;5085730;28;20526;-81
2023/09/16 01:22:33;;;;;;;2.60;1.90;;;22.20;99.90;;;;;;5086204;28;20413;-81
2023/09/16 01:25:05;;;;;;;3.10;2.03;;;22.20;99.90;;;;;;5085657;28;20505;-82
2023/09/16 01:27:31;;;;;;;2.30;2.10;;;22.20;99.90;;;;;;5087660;28;20408;-81
2023/09/16 01:29:58;;;;;;;2.30;2.10;;;22.20;99.90;;;;;;5086762;28;20529;-81
2023/09/16 01:32:31;;;;;;;4.00;1.90;;;22.20;99.90;;;;;;5087188;28;20413;-81
2023/09/16 01:35:00;;;;;;;2.17;1.97;;;22.20;99.90;;;;;;5087149;28;20780;-81
2023/09/16 01:37:29;;;;;;;1.90;1.80;;;22.20;99.90;;;;;;5087551;28;20424;-81
2023/09/16 01:39:59;;;;;;;2.70;1.80;;;22.20;99.90;;;;;;5085253;28;20473;-82
2023/09/16 01:42:28;;;;;;;1.70;1.60;;;22.20;99.90;;;;;;5085704;28;20414;-82
2023/09/16 01:44:54;;;;;;;1.63;1.50;;;22.10;99.90;;;;;;5086620;28;20436;-82
2023/09/16 01:47:20;;;;;;;2.30;2.07;;;22.10;99.90;;;;;;5085748;28;20413;-81
2023/09/16 01:49:46;;;;;;;2.13;1.93;;;22.10;99.90;;;;;;5086645;28;20686;-81
2023/09/16 01:52:11;;;;;;;1.57;1.47;;;22.10;99.90;;;;;;5084355;28;20928;-82
2023/09/16 01:54:37;;;;;;;1.83;1.60;;;22.10;99.90;;;;;;5085269;28;20200;-82
2023/09/16 01:57:03;;;;;;;2.10;1.90;;;22.10;99.90;;;;;;5085809;28;20250;-82
2023/09/16 01:59:29;;;;;;;2.23;2.03;;;22.10;99.90;;;;;;5086348;28;20343;-82
2023/09/16 02:01:54;;;;;;;2.17;1.97;;;22.10;99.90;;;;;;5086528;28;20772;-80
2023/09/16 02:04:20;;;;;;;2.07;1.97;;;22.10;99.90;;;;;;5084784;28;20172;-82
2023/09/16 02:06:46;;;;;;;1.73;1.63;;;22.10;99.90;;;;;;5086195;28;20184;-81
2023/09/16 02:09:13;;;;;;;2.47;1.97;;;22.00;99.90;;;;;;5086235;28;20246;-81
2023/09/16 02:11:39;;;;;;;1.73;1.63;;;22.00;99.90;;;;;;5085157;28;20424;-81
2023/09/16 02:14:05;;;;;;;2.23;2.10;;;22.00;99.90;;;;;;5086656;28;20417;-80
2023/09/16 02:16:31;;;;;;;2.30;2.20;;;22.00;99.90;;;;;;5084825;28;20211;-81
2023/09/16 02:18:57;;;;;;;2.00;1.90;;;22.00;99.90;;;;;;5084864;28;20975;-82
2023/09/16 02:21:23;;;;;;;2.10;1.90;;;22.00;99.90;;;;;;5086121;28;20642;-81
2023/09/16 02:23:49;;;;;;;2.47;2.27;;;22.00;99.90;;;;;;5086396;28;20173;-81
2023/09/16 02:26:15;;;;;;;7.20;2.50;;;22.00;99.90;;;;;;5084817;28;20266;-80
2023/09/16 02:28:40;;;;;;;3.10;2.10;;;22.00;99.90;;;;;;5086158;28;20409;-81
2023/09/16 02:31:09;;;;;;;2.40;2.20;;;22.00;99.90;;;;;;5084401;28;20207;-82
2023/09/16 02:33:35;;;;;;;2.37;2.17;;;22.00;99.90;;;;;;5084899;28;20179;-81
2023/09/16 02:36:01;;;;;;;2.40;2.20;;;22.00;99.90;;;;;;5084411;28;20845;-81
2023/09/16 02:38:27;;;;;;;1.73;1.57;;;22.00;99.90;;;;;;5084439;28;20592;-83
2023/09/16 02:40:52;;;;;;;2.13;2.00;;;22.00;99.90;;;;;;5085655;28;20566;-81
2023/09/16 02:43:18;;;;;;;2.37;2.17;;;22.00;99.90;;;;;;5084662;28;20168;-81
2023/09/16 02:45:44;;;;;;;2.10;1.90;;;22.00;99.90;;;;;;5084576;28;20715;-82
2023/09/16 02:48:10;;;;;;;1.80;1.70;;;22.00;99.90;;;;;;5085653;28;20255;-81
2023/09/16 02:50:39;;;;;;;2.00;1.90;;;22.00;99.90;;;;;;5084971;28;20243;-82
2023/09/16 02:53:06;;;;;;;1.50;1.40;;;22.00;99.90;;;;;;5085517;28;20404;-82
2023/09/16 02:55:32;;;;;;;2.10;1.90;;;21.90;99.90;;;;;;5084537;28;20839;-80
2023/09/16 02:57:59;;;;;;;2.40;2.20;;;21.90;99.90;;;;;;5084191;28;20424;-82
2023/09/16 03:00:25;;;;;;;2.67;2.27;;;22.00;99.90;;;;;;5084167;28;20828;-82
2023/09/16 03:02:51;;;;;;;2.57;2.37;;;21.90;99.90;;;;;;5085579;28;20397;-81
2023/09/16 03:05:17;;;;;;;2.30;2.10;;;21.90;99.90;;;;;;5085865;28;20198;-81
2023/09/16 03:07:44;;;;;;;2.63;2.43;;;21.90;99.90;;;;;;5085643;28;20923;-81
2023/09/16 03:10:11;;;;;;;1.83;1.73;;;21.90;99.90;;;;;;5089591;28;20440;-81
2023/09/16 03:12:36;;;;;;;2.20;2.00;;;21.90;99.90;;;;;;5090052;28;20401;-81
2023/09/16 03:15:03;;;;;;;2.03;1.90;;;21.90;99.90;;;;;;5088563;28;20443;-82
2023/09/16 03:17:29;;;;;;;2.30;2.10;;;21.80;99.90;;;;;;5088514;28;20236;-81
2023/09/16 03:19:55;;;;;;;3.07;2.63;;;21.80;99.90;;;;;;5089551;28;20568;-81
2023/09/16 03:22:20;;;;;;;3.20;2.03;;;21.80;99.90;;;;;;5089624;28;20404;-81
2023/09/16 03:24:47;;;;;;;2.40;2.20;;;21.80;99.90;;;;;;5088526;28;20440;-81
2023/09/16 03:27:13;;;;;;;2.93;2.57;;;21.70;99.90;;;;;;5089604;28;20256;-81
2023/09/16 03:29:38;;;;;;;3.00;2.23;;;21.80;99.90;;;;;;5089955;28;20519;-81
2023/09/16 03:32:04;;;;;;;2.37;2.17;;;21.70;99.90;;;;;;5088177;28;20177;-81
2023/09/16 03:34:30;;;;;;;2.87;2.60;;;21.70;99.90;;;;;;5088056;28;20645;-82
2023/09/16 03:36:55;;;;;;;2.43;2.23;;;21.70;99.90;;;;;;5088008;28;20467;-82
2023/09/16 03:39:21;;;;;;;3.33;2.97;;;21.70;99.90;;;;;;5087913;28;20176;-82
2023/09/16 03:41:47;;;;;;;3.20;2.63;;;21.60;99.90;;;;;;5088048;28;20219;-81
2023/09/16 03:44:14;;;;;;;2.20;2.00;;;21.70;99.90;;;;;;5087636;28;20263;-81
2023/09/16 03:46:40;;;;;;;2.40;2.20;;;21.60;99.90;;;;;;5087736;28;20430;-80
2023/09/16 03:49:05;;;;;;;2.20;2.10;;;21.60;99.90;;;;;;5087666;28;20433;-80
2023/09/16 03:51:35;;;;;;;2.93;2.10;;;21.60;99.90;;;;;;5086754;28;20552;-81
2023/09/16 03:54:00;;;;;;;2.30;2.10;;;21.60;99.90;;;;;;5088915;28;20187;-81
2023/09/16 03:56:26;;;;;;;4.40;2.60;;;21.60;99.90;;;;;;5089010;28;20424;-80
2023/09/16 03:58:52;;;;;;;3.10;2.40;;;21.50;99.90;;;;;;5089020;28;20199;-82
2023/09/16 04:01:17;;;;;;;2.47;2.27;;;21.50;99.90;;;;;;5088417;28;20240;-81
2023/09/16 04:03:43;;;;;;;2.97;2.37;;;21.50;99.90;;;;;;5087409;28;20721;-82
2023/09/16 04:06:09;;;;;;;2.73;2.50;;;21.50;99.90;;;;;;5088152;28;20206;-80
2023/09/16 04:08:36;;;;;;;3.73;2.63;;;21.40;99.90;;;;;;5087451;28;20187;-80
2023/09/16 04:11:02;;;;;;;3.00;2.70;;;21.40;99.90;;;;;;5088566;28;20255;-81
2023/09/16 04:13:28;;;;;;;2.80;2.47;;;21.40;99.90;;;;;;5088966;28;20453;-80
2023/09/16 04:15:54;;;;;;;2.40;2.20;;;21.40;99.90;;;;;;5088627;28;20420;-82
2023/09/16 04:18:20;;;;;;;3.70;2.93;;;21.40;99.90;;;;;;5088320;28;20168;-81
2023/09/16 04:20:48;;;;;;;2.43;2.23;;;21.30;99.90;;;;;;5087579;28;20525;-83
2023/09/16 04:23:13;;;;;;;3.37;3.07;;;21.30;99.90;;;;;;5086910;28;20404;-83
2023/09/16 04:25:39;;;;;;;4.00;2.70;;;21.30;99.90;;;;;;5086917;28;20959;-81
2023/09/16 04:28:05;;;;;;;3.13;2.87;;;21.30;99.90;;;;;;5086903;28;20401;-80
2023/09/16 04:30:31;;;;;;;2.23;2.03;;;21.30;99.90;;;;;;5088178;28;20219;-80
2023/09/16 04:32:57;;;;;;;2.80;2.60;;;21.30;99.90;;;;;;5088160;28;20176;-82
2023/09/16 04:35:22;;;;;;;2.80;2.60;;;21.20;99.90;;;;;;5088031;28;20192;-80
2023/09/16 04:37:48;;;;;;;2.77;2.40;;;21.20;99.90;;;;;;5088227;28;20168;-82
2023/09/16 04:40:14;;;;;;;2.83;2.63;;;21.20;99.90;;;;;;5087992;28;20265;-80
2023/09/16 04:42:40;;;;;;;3.10;2.53;;;21.20;99.90;;;;;;5088456;28;20214;-82
2023/09/16 04:45:06;;;;;;;2.43;2.23;;;21.20;99.90;;;;;;5088219;28;20429;-82
2023/09/16 04:47:33;;;;;;;3.50;3.20;;;21.20;99.90;;;;;;5086651;28;20177;-80
2023/09/16 04:49:59;;;;;;;4.93;2.90;;;21.20;99.90;;;;;;5086124;28;20988;-80
2023/09/16 04:52:27;;;;;;;3.30;3.00;;;21.20;99.90;;;;;;5085413;28;20443;-82
2023/09/16 04:54:53;;;;;;;3.47;2.60;;;21.20;99.90;;;;;;5086458;28;21073;-80
2023/09/16 04:57:20;;;;;;;3.00;2.80;;;21.20;99.90;;;;;;5088234;28;20898;-81
2023/09/16 04:59:46;;;;;;;3.10;2.80;;;21.20;99.90;;;;;;5086775;28;20458;-80
2023/09/16 05:02:12;;;;;;;3.37;3.07;;;21.20;99.90;;;;;;5086271;28;20435;-81
2023/09/16 05:04:37;;;;;;;2.90;2.60;;;21.20;99.90;;;;;;5086178;28;20200;-82
2023/09/16 05:07:07;;;;;;;3.03;2.70;;;21.20;99.90;;;;;;5086045;28;20963;-82
2023/09/16 05:09:32;;;;;;;3.50;3.20;;;21.20;99.90;;;;;;5086113;28;20197;-80
2023/09/16 05:11:58;;;;;;;2.63;2.43;;;21.20;99.90;;;;;;5085921;28;20415;-81
2023/09/16 05:14:24;;;;;;;3.77;3.17;;;21.20;99.90;;;;;;5087707;28;20621;-82
2023/09/16 05:16:50;;;;;;;3.43;3.17;;;21.20;99.90;;;;;;5087579;28;20229;-80
2023/09/16 05:19:16;;;;;;;3.50;3.20;;;21.20;99.90;;;;;;5085743;28;20960;-82
2023/09/16 05:21:41;;;;;;;3.57;2.80;;;21.20;99.90;;;;;;5087489;28;20460;-81
2023/09/16 05:24:07;;;;;;;2.63;2.43;;;21.30;99.90;;;;;;5085826;28;20671;-81
2023/09/16 05:26:33;;;;;;;3.80;3.30;;;21.30;99.90;;;;;;5087085;28;20189;-82
2023/09/16 05:28:59;;;;;;;3.17;2.87;;;21.30;99.90;;;;;;5085862;28;20183;-81
2023/09/16 05:31:25;;;;;;;4.77;3.27;;;21.30;99.90;;;;;;5086490;28;20433;-80
2023/09/16 05:33:51;;;;;;;2.60;2.40;;;21.30;99.90;;;;;;5086753;28;20645;-80
2023/09/16 05:36:17;;;;;;;2.50;2.30;;;21.30;99.90;;;;;;5087540;28;20432;-82
2023/09/16 05:38:43;;;;;;;2.80;2.60;;;21.30;99.90;;;;;;5085747;28;20420;-81
2023/09/16 05:41:09;;;;;;;4.83;2.40;;;21.30;99.90;;;;;;5086773;28;20465;-80
2023/09/16 05:43:34;;;;;;;3.50;3.20;;;21.30;99.90;;;;;;5085572;28;20180;-82
2023/09/16 05:46:01;;;;;;;3.50;3.13;;;21.40;99.90;;;;;;5084038;28;20356;-81
2023/09/16 05:48:27;;;;;;;2.70;2.50;;;21.40;99.90;;;;;;5085180;28;20233;-81
2023/09/16 05:50:59;;;;;;;3.50;3.20;;;21.40;99.90;;;;;;5084975;28;20794;-81
2023/09/16 05:53:26;;;;;;;3.30;2.63;;;21.40;99.90;;;;;;5085342;28;20507;-82
2023/09/16 05:55:53;;;;;;;4.83;2.73;;;21.40;99.90;;;;;;5086620;28;20524;-81
2023/09/16 05:58:19;;;;;;;2.53;2.33;;;21.40;99.90;;;;;;5085670;28;20974;-81
2023/09/16 06:00:55;;;;;;;3.00;2.80;;;21.50;99.90;;;;;;5086322;28;20993;-81
2023/09/16 06:03:21;;;;;;;2.50;2.30;;;21.40;99.90;;;;;;5084767;28;20523;-82
2023/09/16 06:05:46;;;;;;;4.90;3.27;;;21.40;99.90;;;;;;5084281;28;20527;-80
2023/09/16 06:08:13;;;;;;;2.40;2.13;;;21.50;99.90;;;;;;5083234;28;20168;-80
2023/09/16 06:10:39;;;;;;;2.40;2.20;;;21.50;99.90;;;;;;5083282;28;20245;-81
2023/09/16 06:13:05;;;;;;;3.20;2.90;;;21.50;99.90;;;;;;5084530;28;20394;-82
2023/09/16 06:15:30;;;;;;;3.30;3.00;;;21.50;99.90;;;;;;5083104;28;20696;-79
2023/09/16 06:17:56;;;;;;;2.93;2.63;;;21.60;99.90;;;;;;5083614;28;20454;-80
2023/09/16 06:20:22;;;;;;;2.90;2.60;;;21.60;99.90;;;;;;5083860;28;20315;-82
2023/09/16 06:22:47;;;;;;;2.87;2.67;;;21.60;99.90;;;;;;5086335;28;20176;-80
2023/09/16 06:25:14;;;;;;;2.60;2.40;;;21.60;99.90;;;;;;5084594;28;20228;-81
2023/09/16 06:27:39;;;;;;;2.97;2.70;;;21.60;99.90;;;;;;5086089;28;20184;-81
2023/09/16 06:30:05;;;;;;;3.27;2.97;;;21.60;99.90;;;;;;5085934;28;20437;-82
2023/09/16 06:32:31;;;;;;;3.60;3.27;;;21.70;99.90;;;;;;5084760;28;20180;-80
2023/09/16 06:34:57;;;;;;;2.90;2.70;;;21.70;99.90;;;;;;5086188;28;20486;-82
2023/09/16 06:37:23;;;;;;;2.90;2.70;;;21.70;99.90;;;;;;5085045;28;20233;-80
2023/09/16 06:39:48;;;;;;;2.80;2.50;;;21.60;99.90;;;;;;5084267;28;20440;-82
2023/09/16 06:42:14;;;;;;;3.20;2.90;;;21.70;99.90;;;;;;5086378;28;20894;-81
2023/09/16 06:44:40;;;;;;;3.10;2.43;;;21.70;99.90;;;;;;5081499;28;20722;-81
2023/09/16 06:47:05;;;;;;;3.63;2.80;;;21.70;99.90;;;;;;5080209;28;20188;-82
2023/09/16 06:49:31;;;;;;;3.07;2.60;;;21.70;99.90;;;;;;5065547;28;20275;-82
2023/09/16 06:51:57;;;;;;;3.10;2.80;;;21.70;99.90;;;;;;5064853;28;20169;-80
2023/09/16 06:54:22;;;;;;;3.03;2.73;;;21.70;99.90;;;;;;5065793;28;20433;-82
2023/09/16 06:56:48;;;;;;;2.63;2.43;;;21.70;99.90;;;;;;5064246;28;20413;-81
2023/09/16 06:59:14;;;;;;;2.80;2.60;;;21.70;99.90;;;;;;5066036;28;20260;-80
2023/09/16 07:01:39;;;;;;;3.20;2.73;;;21.70;99.90;;;;;;5064016;28;20213;-81
2023/09/16 07:04:05;;;;;;;3.53;3.23;;;21.70;99.90;;;;;;5064233;28;20183;-82
2023/09/16 07:06:31;;;;;;;2.90;2.60;;;21.70;99.90;;;;;;5064903;28;20193;-82
2023/09/16 07:08:56;;;;;;;3.13;2.83;;;21.70;99.90;;;;;;5064056;28;20188;-80
2023/09/16 07:11:22;;;;;;;3.13;2.73;;;21.80;99.90;;;;;;5064150;28;20205;-82
2023/09/16 07:13:48;;;;;;;2.87;2.67;;;21.70;99.90;;;;;;5065485;28;20420;-81
2023/09/16 07:16:15;;;;;;;3.17;2.87;;;21.80;99.90;;;;;;5064361;28;20205;-80
2023/09/16 07:18:40;;;;;;;2.77;2.57;;;21.80;99.90;;;;;;5063955;28;20268;-81
2023/09/16 07:21:06;;;;;;;3.33;2.63;;;21.80;99.90;;;;;;5063702;28;20462;-82
2023/09/16 07:23:32;;;;;;;3.30;3.00;;;21.90;99.90;;;;;;5065253;28;20181;-81
2023/09/16 07:25:59;;;;;;;3.60;3.30;;;21.90;99.90;;;;;;5065442;28;20953;-81
2023/09/16 07:28:26;;;;;;;6.63;2.80;;;21.90;99.90;;;;;;5063794;28;20185;-82
2023/09/16 07:30:51;;;;;;;3.30;3.10;;;21.90;99.90;;;;;;5065107;28;20426;-81
2023/09/16 07:33:17;;;;;;;3.23;2.83;;;21.90;99.90;;;;;;5065324;28;20929;-82
2023/09/16 07:35:43;;;;;;;3.30;2.90;;;22.00;99.90;;;;;;5063825;28;20654;-82
2023/09/16 07:38:09;;;;;;;4.27;2.97;;;22.00;99.90;;;;;;5065074;28;20169;-82
2023/09/16 07:40:37;;;;;;;5.90;3.60;;;22.00;99.90;;;;;;5064896;28;21033;-80
2023/09/16 07:43:06;;;;;;;4.03;3.67;;;22.10;99.90;;;;;;5063619;28;20432;-82
2023/09/16 07:45:31;;;;;;;3.40;3.10;;;22.00;99.90;;;;;;5064865;28;20422;-82
2023/09/16 07:47:57;;;;;;;3.43;3.13;;;22.00;99.90;;;;;;5063649;28;20424;-83
2023/09/16 07:50:23;;;;;;;4.43;3.43;;;22.10;99.90;;;;;;5062680;28;20286;-82
2023/09/16 07:52:48;;;;;;;3.67;3.37;;;22.10;99.90;;;;;;5063517;28;20610;-81
2023/09/16 07:55:14;;;;;;;3.60;3.30;;;22.10;99.90;;;;;;5064213;28;20198;-82
2023/09/16 07:57:40;;;;;;;4.50;4.10;;;22.20;99.90;;;;;;5068709;28;20574;-82
2023/09/16 08:00:07;;;;;;;3.07;2.80;;;22.20;99.90;;;;;;5067158;28;20217;-82
2023/09/16 08:02:33;;;;;;;4.27;3.87;;;22.30;99.90;;;;;;5068350;28;20212;-81
2023/09/16 08:04:59;;;;;;;7.37;3.83;;;22.30;99.90;;;;;;5067094;28;20549;-81
2023/09/16 08:07:25;;;;;;;3.70;3.40;;;22.30;99.90;;;;;;5067026;28;20418;-82
2023/09/16 08:09:51;;;;;;;5.20;4.60;;;22.40;99.90;;;;;;5068551;28;20280;-80
2023/09/16 08:12:17;;;;;;;4.83;3.87;;;22.40;99.90;;;;;;5067359;28;20185;-81
2023/09/16 08:14:43;;;;;;;4.60;4.20;;;22.50;99.90;;;;;;5068431;28;20444;-83
2023/09/16 08:17:09;;;;;;;5.53;4.87;;;22.60;99.90;;;;;;5066957;28;20418;-80
2023/09/16 08:19:34;;;;;;;6.37;3.70;;;22.60;99.90;;;;;;5066690;28;20438;-80
2023/09/16 08:22:00;;;;;;;5.60;4.60;;;22.70;99.90;;;;;;5068067;28;20819;-81
2023/09/16 08:24:27;;;;;;;4.80;4.23;;;22.70;99.90;;;;;;5067967;28;20173;-81
2023/09/16 08:26:52;;;;;;;5.30;4.50;;;22.70;99.90;;;;;;5066621;28;20193;-81
2023/09/16 08:29:18;;;;;;;5.73;4.97;;;22.80;99.90;;;;;;5066958;28;20426;-82
2023/09/16 08:31:44;;;;;;;6.20;5.30;;;22.80;99.90;;;;;;5066510;28;20189;-81
2023/09/16 08:34:09;;;;;;;7.13;6.37;;;22.80;99.90;;;;;;5068261;28;20175;-80
2023/09/16 08:36:35;;;;;;;7.03;5.17;;;22.80;99.90;;;;;;5068449;28;20208;-82
2023/09/16 08:39:01;;;;;;;6.27;5.07;;;22.80;99.90;;;;;;5068140;28;20551;-82
2023/09/16 08:41:39;;;;;;;6.37;5.40;;;22.80;99.90;;;;;;5068114;28;20248;-82
2023/09/16 08:44:08;;;;;;;8.27;5.40;;;22.90;99.90;;;;;;5066494;28;20648;-81
2023/09/16 08:46:39;;;;;;;5.57;5.07;;;22.90;99.90;;;;;;5067729;28;20764;-81
2023/09/16 08:49:07;;;;;;;7.73;6.43;;;22.90;99.90;;;;;;5067900;28;20423;-82
2023/09/16 08:51:38;;;;;;;8.33;7.30;;;22.90;99.90;;;;;;5067814;28;20477;-81
2023/09/16 08:54:07;;;;;;;6.50;5.07;;;22.90;99.90;;;;;;5065781;28;20455;-82
2023/09/16 08:56:33;;;;;;;11.63;6.70;;;22.90;99.90;;;;;;5067389;28;20480;-80
2023/09/16 08:58:59;;;;;;;8.07;6.50;;;23.00;99.90;;;;;;5066122;28;20427;-81
2023/09/16 09:01:25;;;;;;;6.37;5.33;;;23.00;99.90;;;;;;5067226;28;20476;-80
2023/09/16 09:03:53;;;;;;;6.83;5.00;;;23.00;99.90;;;;;;5066216;28;20440;-81
2023/09/16 09:06:21;;;;;;;7.60;5.73;;;23.00;99.90;;;;;;5069683;28;20459;-81
2023/09/16 09:08:47;;;;;;;7.03;5.43;;;23.10;99.90;;;;;;5066425;28;20420;-81
2023/09/16 09:11:15;;;;;;;7.73;5.90;;;23.20;99.90;;;;;;5064435;28;20424;-81
2023/09/16 09:13:46;;;;;;;7.67;4.87;;;23.30;99.90;;;;;;5066170;28;20502;-81
2023/09/16 09:16:16;;;;;;;6.77;5.13;;;23.40;99.90;;;;;;5066057;28;20897;-80
2023/09/16 09:18:44;;;;;;;6.10;5.47;;;23.50;99.90;;;;;;5064971;28;20418;-81
2023/09/16 09:21:10;;;;;;;6.40;5.70;;;23.60;99.90;;;;;;5070515;28;20477;-81
2023/09/16 09:23:36;;;;;;;6.80;5.80;;;23.60;99.90;;;;;;5085264;28;20424;-82
2023/09/16 09:26:02;;;;;;;6.83;5.67;;;23.60;99.90;;;;;;5087153;28;20446;-81
2023/09/16 09:28:28;;;;;;;6.30;5.23;;;23.70;99.90;;;;;;5087194;28;20181;-81
2023/09/16 09:30:57;;;;;;;6.90;5.97;;;23.70;99.90;;;;;;5086908;28;20655;-81
2023/09/16 09:33:26;;;;;;;6.47;5.50;;;23.70;99.90;;;;;;5087202;28;20454;-81
2023/09/16 09:36:18;;;;;;;7.40;6.13;;;23.80;99.90;;;;;;5085602;28;20434;-82
2023/09/16 09:38:45;;;;;;;7.03;6.33;;;23.80;99.90;;;;;;5087120;28;20773;-82
2023/09/16 09:41:11;;;;;;;8.27;5.97;;;23.90;99.90;;;;;;5085346;28;20854;-81
2023/09/16 09:43:37;;;;;;;8.30;5.93;;;23.90;99.90;;;;;;5085617;28;20424;-82
2023/09/16 09:46:03;;;;;;;8.10;5.97;;;23.90;99.90;;;;;;5087036;28;20508;-83
2023/09/16 09:48:33;;;;;;;6.20;5.40;;;24.00;99.90;;;;;;5085502;28;20235;-81
2023/09/16 09:51:00;;;;;;;5.73;5.07;;;24.00;99.90;;;;;;5085068;28;20678;-81
2023/09/16 09:53:26;;;;;;;4.97;4.33;;;24.10;99.90;;;;;;5084731;28;20960;-81
2023/09/16 09:55:53;;;;;;;6.77;5.53;;;24.20;99.90;;;;;;5086161;28;20657;-82
2023/09/16 09:58:22;;;;;;;5.50;4.93;;;24.30;99.90;;;;;;5086637;28;20449;-81
2023/09/16 10:00:50;;;;;;;6.23;5.60;;;24.40;99.90;;;;;;5084839;28;20563;-80
2023/09/16 10:03:17;;;;;;;5.97;5.23;;;24.50;99.90;;;;;;5085140;28;20515;-81
2023/09/16 10:05:43;;;;;;;6.80;4.87;;;24.60;99.90;;;;;;5085238;28;20432;-82
2023/09/16 10:08:10;;;;;;;6.70;4.93;;;24.60;99.90;;;;;;5086526;28;20409;-80
2023/09/16 10:10:38;;;;;;;6.13;5.17;;;24.50;99.90;;;;;;5086397;28;20238;-80
2023/09/16 10:13:04;;;;;;;5.60;4.80;;;24.60;99.90;;;;;;5086519;28;20385;-82
2023/09/16 10:15:36;;;;;;;5.10;4.37;;;24.60;99.90;;;;;;5084867;28;20446;-81
2023/09/16 10:18:03;;;;;;;5.80;5.10;;;24.60;99.90;;;;;;5084178;28;20222;-81
2023/09/16 10:20:39;;;;;;;5.50;5.00;;;24.60;99.90;;;;;;5084632;28;20463;-81
2023/09/16 10:23:06;;;;;;;7.03;5.00;;;24.60;99.90;;;;;;5084701;28;20435;-80
2023/09/16 10:25:33;;;;;;;5.63;4.93;;;24.70;99.90;;;;;;5084506;28;20449;-82
2023/09/16 10:28:04;;;;;;;6.13;4.73;;;24.70;99.90;;;;;;5084540;28;20432;-81
2023/09/16 10:30:31;;;;;;;5.00;4.03;;;24.80;99.90;;;;;;5085791;28;20432;-81
2023/09/16 10:33:02;;;;;;;5.13;4.50;;;24.80;99.90;;;;;;5085931;28;20405;-82
2023/09/16 10:35:28;;;;;;;4.67;4.03;;;24.90;99.90;;;;;;5083507;28;21079;-82
2023/09/16 10:37:56;;;;;;;5.40;4.43;;;24.90;99.90;;;;;;5084388;28;20791;-82
2023/09/16 10:40:24;;;;;;;4.50;3.93;;;25.00;99.90;;;;;;5083859;28;20500;-82
2023/09/16 10:42:51;;;;;;;5.13;4.63;;;25.00;99.90;;;;;;5084399;28;20406;-81
2023/09/16 10:45:18;;;;;;;5.00;4.50;;;25.10;99.90;;;;;;5084308;28;20723;-82
2023/09/16 10:47:46;;;;;;;5.30;3.90;;;25.20;99.90;;;;;;5084826;28;20930;-81
2023/09/16 10:50:12;;;;;;;5.63;4.20;;;25.30;99.90;;;;;;5085613;28;20465;-82
2023/09/16 10:52:50;;;;;;;3.90;3.50;;;25.30;99.90;;;;;;5083552;28;20401;-81
2023/09/16 10:55:51;;;;;;;3.13;2.93;;;25.40;99.90;;;;;;5081756;28;20594;-81
2023/09/16 10:58:29;;;;;;;6.50;4.17;;;25.40;99.90;;;;;;5083430;28;20433;-80
2023/09/16 11:00:58;;;;;;;5.60;4.20;;;25.30;99.90;;;;;;5082473;28;20494;-81
2023/09/16 11:03:31;;;;;;;3.53;3.23;;;25.30;99.90;;;;;;5084167;28;20428;-82
2023/09/16 11:06:03;;;;;;;3.73;3.30;;;25.40;99.90;;;;;;5083819;28;20516;-82
2023/09/16 11:08:29;;;;;;;6.63;3.23;;;25.40;99.90;;;;;;5083897;28;20795;-82
2023/09/16 11:10:58;;;;;;;3.67;3.30;;;25.40;99.90;;;;;;5084314;28;20437;-81
2023/09/16 11:13:29;;;;;;;4.50;3.43;;;25.50;99.90;;;;;;5084368;28;20215;-80
2023/09/16 11:15:59;;;;;;;3.50;2.77;;;25.50;99.90;;;;;;5084451;28;20461;-80
2023/09/16 11:18:25;;;;;;;3.27;2.97;;;25.60;99.90;;;;;;5084244;28;20951;-82
2023/09/16 11:20:51;;;;;;;4.40;3.23;;;25.60;99.90;;;;;;5084022;28;20472;-82
2023/09/16 11:23:17;;;;;;;3.70;3.30;;;25.60;99.90;;;;;;5083993;28;20176;-81
2023/09/16 11:25:43;;;;;;;4.30;3.53;;;25.70;99.90;;;;;;5084191;28;20460;-81
2023/09/16 11:28:19;;;;;;;4.90;4.40;;;25.70;99.90;;;;;;5083845;28;20542;-81
2023/09/16 11:30:56;;;;;;;5.03;3.70;;;25.70;99.90;;;;;;5087069;28;20971;-81
2023/09/16 11:33:39;;;;;;;4.13;3.50;;;25.70;99.90;;;;;;5089644;28;20431;-82
2023/09/16 11:36:19;;;;;;;3.63;3.33;;;25.60;99.90;;;;;;5089317;28;20428;-82
2023/09/16 11:38:57;;;;;;;3.93;3.53;;;25.70;99.90;;;;;;5088259;28;20967;-81
2023/09/16 11:41:24;;;;;;;3.77;3.37;;;25.70;99.90;;;;;;5088767;28;20573;-81
2023/09/16 11:43:50;;;;;;;4.97;3.40;;;25.70;99.90;;;;;;5089240;28;20452;-82
2023/09/16 11:46:16;;;;;;;3.50;3.20;;;25.80;99.90;;;;;;5087810;28;20488;-81
2023/09/16 11:48:49;;;;;;;4.60;4.20;;;25.80;99.90;;;;;;5089616;28;20413;-81
2023/09/16 11:51:16;;;;;;;4.67;4.20;;;25.80;99.90;;;;;;5087309;28;20465;-82
2023/09/16 11:53:42;;;;;;;5.23;4.70;;;25.80;99.90;;;;;;5088004;28;20933;-81
2023/09/16 11:56:08;;;;;;;4.47;4.00;;;25.80;99.90;;;;;;5086817;28;20634;-83
2023/09/16 11:58:34;;;;;;;4.90;3.93;;;25.90;99.90;;;;;;5088667;28;20448;-82
2023/09/16 12:01:02;;;;;;;5.10;4.47;;;26.00;99.90;;;;;;5087248;28;20299;-81
2023/09/16 12:03:28;;;;;;;4.90;4.20;;;25.90;99.90;;;;;;5087849;28;20335;-81
2023/09/16 12:05:55;;;;;;;5.27;4.27;;;25.90;99.90;;;;;;5087343;28;20523;-81
2023/09/16 12:08:20;;;;;;;4.27;3.57;;;25.90;99.90;;;;;;5087271;28;20459;-82
2023/09/16 12:10:47;;;;;;;5.10;3.57;;;26.00;99.90;;;;;;5087489;28;20472;-81
2023/09/16 12:13:28;;;;;;;4.20;3.80;;;26.00;99.90;;;;;;5087252;28;20724;-82
2023/09/16 12:15:53;;;;;;;3.17;2.87;;;26.00;99.90;;;;;;5087183;28;20961;-82
2023/09/16 12:18:19;;;;;;;4.30;3.87;;;26.00;99.90;;;;;;5087152;28;20431;-81
2023/09/16 12:20:46;;;;;;;3.23;2.93;;;26.00;99.90;;;;;;5088489;28;20208;-82
2023/09/16 12:23:19;;;;;;;3.90;3.50;;;26.00;99.90;;;;;;5087040;28;20168;-81
2023/09/16 12:25:45;;;;;;;3.03;2.70;;;26.00;99.90;;;;;;5087375;28;21006;-81
2023/09/16 12:28:18;;;;;;;4.07;3.67;;;25.90;99.90;;;;;;5086599;28;20937;-81
2023/09/16 12:30:46;;;;;;;4.23;3.83;;;25.90;99.90;;;;;;5088448;28;20452;-80
2023/09/16 12:33:12;;;;;;;4.00;3.60;;;25.90;99.90;;;;;;5088388;28;20465;-81
2023/09/16 12:35:41;;;;;;;3.90;3.00;;;26.00;99.90;;;;;;5087012;28;20429;-82
2023/09/16 12:38:07;;;;;;;4.33;3.93;;;26.00;99.90;;;;;;5088180;28;20247;-81
2023/09/16 12:40:34;;;;;;;3.50;3.20;;;26.00;99.90;;;;;;5086623;28;20473;-81
2023/09/16 12:43:03;;;;;;;3.73;3.23;;;26.10;99.90;;;;;;5087678;28;20432;-82
2023/09/16 12:45:29;;;;;;;3.90;3.00;;;26.10;99.90;;;;;;5087861;28;20508;-81
2023/09/16 12:47:55;;;;;;;3.87;3.30;;;26.10;99.90;;;;;;5087972;28;20534;-81